sensor_id;sensor_type;location;lat;lon;timestamp;P1;durP1;ratioP1;P2;durP2;ratioP2
80677;SDS011;70042;52.494;5.502;2023-09-18T00:01:36;6.72;;;4.95;;
80677;SDS011;70042;52.494;5.502;2023-09-18T00:04:04;6.75;;;4.65;;
80677;SDS011;70042;52.494;5.502;2023-09-18T00:06:30;6.68;;;5.25;;
80677;SDS011;70042;52.494;5.502;2023-09-18T00:08:56;6.93;;;5.00;;
80677;SDS011;70042;52.494;5.502;2023-09-18T00:13:47;7.60;;;5.13;;
80677;SDS011;70042;52.494;5.502;2023-09-18T00:16:12;6.03;;;4.38;;
80677;SDS011;70042;52.494;5.502;2023-09-18T00:18:38;7.50;;;5.07;;
80677;SDS011;70042;52.494;5.502;2023-09-18T00:23:29;6.28;;;4.32;;
80677;SDS011;70042;52.494;5.502;2023-09-18T00:25:54;7.40;;;4.78;;
80677;SDS011;70042;52.494;5.502;2023-09-18T00:28:19;6.50;;;4.57;;
80677;SDS011;70042;52.494;5.502;2023-09-18T00:30:48;6.68;;;4.65;;
80677;SDS011;70042;52.494;5.502;2023-09-18T00:33:15;5.22;;;4.07;;
80677;SDS011;70042;52.494;5.502;2023-09-18T00:35:44;6.80;;;4.32;;
80677;SDS011;70042;52.494;5.502;2023-09-18T00:38:10;5.75;;;4.13;;
80677;SDS011;70042;52.494;5.502;2023-09-18T00:40:35;6.45;;;4.85;;
80677;SDS011;70042;52.494;5.502;2023-09-18T00:43:01;6.05;;;4.63;;
80677;SDS011;70042;52.494;5.502;2023-09-18T00:47:52;7.80;;;4.32;;
80677;SDS011;70042;52.494;5.502;2023-09-18T00:50:19;5.60;;;4.40;;
80677;SDS011;70042;52.494;5.502;2023-09-18T00:52:46;6.65;;;4.47;;
80677;SDS011;70042;52.494;5.502;2023-09-18T00:55:12;6.63;;;4.03;;
80677;SDS011;70042;52.494;5.502;2023-09-18T00:57:38;5.13;;;4.15;;
80677;SDS011;70042;52.494;5.502;2023-09-18T01:02:33;4.80;;;3.90;;
80677;SDS011;70042;52.494;5.502;2023-09-18T01:04:58;6.25;;;4.00;;
80677;SDS011;70042;52.494;5.502;2023-09-18T01:07:24;5.45;;;4.05;;
80677;SDS011;70042;52.494;5.502;2023-09-18T01:09:51;4.85;;;3.72;;
80677;SDS011;70042;52.494;5.502;2023-09-18T01:12:27;5.18;;;4.10;;
80677;SDS011;70042;52.494;5.502;2023-09-18T01:15:10;5.28;;;4.03;;
80677;SDS011;70042;52.494;5.502;2023-09-18T01:17:39;5.53;;;3.90;;
80677;SDS011;70042;52.494;5.502;2023-09-18T01:22:33;3.88;;;3.47;;
80677;SDS011;70042;52.494;5.502;2023-09-18T01:27:24;5.13;;;3.63;;
80677;SDS011;70042;52.494;5.502;2023-09-18T01:29:49;4.57;;;3.70;;
80677;SDS011;70042;52.494;5.502;2023-09-18T01:32:16;5.97;;;3.97;;
80677;SDS011;70042;52.494;5.502;2023-09-18T01:34:45;7.57;;;3.83;;
80677;SDS011;70042;52.494;5.502;2023-09-18T01:37:14;5.68;;;3.92;;
80677;SDS011;70042;52.494;5.502;2023-09-18T01:39:42;5.32;;;3.83;;
80677;SDS011;70042;52.494;5.502;2023-09-18T01:42:09;4.97;;;3.20;;
80677;SDS011;70042;52.494;5.502;2023-09-18T01:44:35;4.93;;;3.83;;
80677;SDS011;70042;52.494;5.502;2023-09-18T01:47:05;4.57;;;3.53;;
80677;SDS011;70042;52.494;5.502;2023-09-18T01:49:34;5.07;;;3.35;;
80677;SDS011;70042;52.494;5.502;2023-09-18T01:52:01;4.07;;;2.97;;
80677;SDS011;70042;52.494;5.502;2023-09-18T01:54:28;4.28;;;3.58;;
80677;SDS011;70042;52.494;5.502;2023-09-18T01:56:57;4.40;;;3.45;;
80677;SDS011;70042;52.494;5.502;2023-09-18T01:59:23;5.00;;;3.85;;
80677;SDS011;70042;52.494;5.502;2023-09-18T02:01:49;5.55;;;3.63;;
80677;SDS011;70042;52.494;5.502;2023-09-18T02:06:40;4.32;;;3.30;;
80677;SDS011;70042;52.494;5.502;2023-09-18T02:09:06;5.05;;;3.65;;
80677;SDS011;70042;52.494;5.502;2023-09-18T02:11:36;4.10;;;3.00;;
80677;SDS011;70042;52.494;5.502;2023-09-18T02:14:03;3.75;;;3.25;;
80677;SDS011;70042;52.494;5.502;2023-09-18T02:16:30;4.28;;;3.60;;
80677;SDS011;70042;52.494;5.502;2023-09-18T02:18:56;4.30;;;3.47;;
80677;SDS011;70042;52.494;5.502;2023-09-18T02:23:50;4.32;;;3.35;;
80677;SDS011;70042;52.494;5.502;2023-09-18T02:26:19;4.28;;;3.60;;
80677;SDS011;70042;52.494;5.502;2023-09-18T02:28:45;4.38;;;3.20;;
80677;SDS011;70042;52.494;5.502;2023-09-18T02:31:11;4.93;;;3.83;;
80677;SDS011;70042;52.494;5.502;2023-09-18T02:36:02;4.57;;;3.35;;
80677;SDS011;70042;52.494;5.502;2023-09-18T02:38:28;3.78;;;3.20;;
80677;SDS011;70042;52.494;5.502;2023-09-18T02:40:55;4.15;;;3.38;;
80677;SDS011;70042;52.494;5.502;2023-09-18T02:43:22;4.80;;;3.10;;
80677;SDS011;70042;52.494;5.502;2023-09-18T02:48:13;4.18;;;3.58;;
80677;SDS011;70042;52.494;5.502;2023-09-18T02:53:05;3.85;;;2.97;;
80677;SDS011;70042;52.494;5.502;2023-09-18T02:55:31;3.75;;;3.13;;
80677;SDS011;70042;52.494;5.502;2023-09-18T02:57:57;3.78;;;3.00;;
80677;SDS011;70042;52.494;5.502;2023-09-18T03:00:23;4.20;;;3.63;;
80677;SDS011;70042;52.494;5.502;2023-09-18T03:05:17;4.05;;;2.97;;
80677;SDS011;70042;52.494;5.502;2023-09-18T03:10:09;4.60;;;3.13;;
80677;SDS011;70042;52.494;5.502;2023-09-18T03:12:38;3.65;;;3.35;;
80677;SDS011;70042;52.494;5.502;2023-09-18T03:15:05;3.53;;;2.88;;
80677;SDS011;70042;52.494;5.502;2023-09-18T03:20:11;3.40;;;2.90;;
80677;SDS011;70042;52.494;5.502;2023-09-18T03:22:38;3.50;;;2.90;;
80677;SDS011;70042;52.494;5.502;2023-09-18T03:25:04;3.63;;;2.70;;
80677;SDS011;70042;52.494;5.502;2023-09-18T03:27:29;3.80;;;3.40;;
80677;SDS011;70042;52.494;5.502;2023-09-18T03:29:56;3.42;;;3.13;;
80677;SDS011;70042;52.494;5.502;2023-09-18T03:32:22;4.63;;;3.10;;
80677;SDS011;70042;52.494;5.502;2023-09-18T03:34:50;4.18;;;3.40;;
80677;SDS011;70042;52.494;5.502;2023-09-18T03:37:16;3.83;;;2.95;;
80677;SDS011;70042;52.494;5.502;2023-09-18T03:42:07;3.50;;;2.90;;
80677;SDS011;70042;52.494;5.502;2023-09-18T03:46:57;3.53;;;3.03;;
80677;SDS011;70042;52.494;5.502;2023-09-18T03:51:48;3.53;;;3.10;;
80677;SDS011;70042;52.494;5.502;2023-09-18T03:54:14;3.90;;;3.22;;
80677;SDS011;70042;52.494;5.502;2023-09-18T03:56:40;3.15;;;2.80;;
80677;SDS011;70042;52.494;5.502;2023-09-18T04:01:31;3.67;;;2.70;;
80677;SDS011;70042;52.494;5.502;2023-09-18T04:06:23;3.10;;;2.72;;
80677;SDS011;70042;52.494;5.502;2023-09-18T04:08:49;4.00;;;3.05;;
80677;SDS011;70042;52.494;5.502;2023-09-18T04:11:16;3.58;;;3.17;;
80677;SDS011;70042;52.494;5.502;2023-09-18T04:13:42;4.55;;;2.88;;
80677;SDS011;70042;52.494;5.502;2023-09-18T04:16:07;4.00;;;3.13;;
80677;SDS011;70042;52.494;5.502;2023-09-18T04:18:33;4.10;;;3.05;;
80677;SDS011;70042;52.494;5.502;2023-09-18T04:20:58;3.72;;;3.22;;
80677;SDS011;70042;52.494;5.502;2023-09-18T04:23:24;3.25;;;2.95;;
80677;SDS011;70042;52.494;5.502;2023-09-18T04:25:52;3.80;;;3.40;;
80677;SDS011;70042;52.494;5.502;2023-09-18T04:28:19;3.40;;;2.90;;
80677;SDS011;70042;52.494;5.502;2023-09-18T04:30:46;3.60;;;2.78;;
80677;SDS011;70042;52.494;5.502;2023-09-18T04:33:13;3.05;;;2.67;;
80677;SDS011;70042;52.494;5.502;2023-09-18T04:35:39;3.33;;;2.72;;
80677;SDS011;70042;52.494;5.502;2023-09-18T04:38:06;4.68;;;3.20;;
80677;SDS011;70042;52.494;5.502;2023-09-18T04:40:32;3.63;;;2.97;;
80677;SDS011;70042;52.494;5.502;2023-09-18T04:43:01;3.63;;;2.85;;
80677;SDS011;70042;52.494;5.502;2023-09-18T04:45:28;3.35;;;2.55;;
80677;SDS011;70042;52.494;5.502;2023-09-18T04:47:54;3.45;;;2.60;;
80677;SDS011;70042;52.494;5.502;2023-09-18T04:50:19;3.92;;;3.05;;
80677;SDS011;70042;52.494;5.502;2023-09-18T04:52:45;2.95;;;2.50;;
80677;SDS011;70042;52.494;5.502;2023-09-18T04:55:10;3.75;;;3.08;;
80677;SDS011;70042;52.494;5.502;2023-09-18T04:57:40;3.35;;;3.00;;
80677;SDS011;70042;52.494;5.502;2023-09-18T05:00:05;3.40;;;3.10;;
80677;SDS011;70042;52.494;5.502;2023-09-18T05:02:37;4.03;;;3.15;;
80677;SDS011;70042;52.494;5.502;2023-09-18T05:05:03;4.38;;;2.75;;
80677;SDS011;70042;52.494;5.502;2023-09-18T05:07:29;3.00;;;2.55;;
80677;SDS011;70042;52.494;5.502;2023-09-18T05:09:56;3.45;;;2.95;;
80677;SDS011;70042;52.494;5.502;2023-09-18T05:12:21;4.30;;;3.00;;
80677;SDS011;70042;52.494;5.502;2023-09-18T05:14:48;3.08;;;2.50;;
80677;SDS011;70042;52.494;5.502;2023-09-18T05:17:14;4.63;;;2.45;;
80677;SDS011;70042;52.494;5.502;2023-09-18T05:19:40;3.08;;;2.63;;
80677;SDS011;70042;52.494;5.502;2023-09-18T05:22:07;4.22;;;3.33;;
80677;SDS011;70042;52.494;5.502;2023-09-18T05:24:35;3.30;;;2.88;;
80677;SDS011;70042;52.494;5.502;2023-09-18T05:27:00;3.40;;;2.63;;
80677;SDS011;70042;52.494;5.502;2023-09-18T05:31:51;3.85;;;2.65;;
80677;SDS011;70042;52.494;5.502;2023-09-18T05:34:17;3.08;;;2.60;;
80677;SDS011;70042;52.494;5.502;2023-09-18T05:39:08;3.25;;;2.47;;
80677;SDS011;70042;52.494;5.502;2023-09-18T05:41:38;2.92;;;2.63;;
80677;SDS011;70042;52.494;5.502;2023-09-18T05:46:58;3.40;;;2.70;;
80677;SDS011;70042;52.494;5.502;2023-09-18T05:49:24;3.35;;;2.78;;
80677;SDS011;70042;52.494;5.502;2023-09-18T05:51:49;3.58;;;2.53;;
80677;SDS011;70042;52.494;5.502;2023-09-18T05:56:40;3.70;;;2.40;;
80677;SDS011;70042;52.494;5.502;2023-09-18T05:59:05;2.90;;;2.60;;
80677;SDS011;70042;52.494;5.502;2023-09-18T06:03:57;2.80;;;2.50;;
80677;SDS011;70042;52.494;5.502;2023-09-18T06:06:23;2.63;;;2.42;;
80677;SDS011;70042;52.494;5.502;2023-09-18T06:08:50;3.80;;;2.78;;
80677;SDS011;70042;52.494;5.502;2023-09-18T06:11:18;3.28;;;2.67;;
80677;SDS011;70042;52.494;5.502;2023-09-18T06:13:44;3.90;;;2.63;;
80677;SDS011;70042;52.494;5.502;2023-09-18T06:18:35;2.67;;;2.40;;
80677;SDS011;70042;52.494;5.502;2023-09-18T06:21:03;3.17;;;2.88;;
80677;SDS011;70042;52.494;5.502;2023-09-18T06:23:28;3.17;;;2.55;;
80677;SDS011;70042;52.494;5.502;2023-09-18T06:25:54;2.97;;;2.53;;
80677;SDS011;70042;52.494;5.502;2023-09-18T06:28:22;3.67;;;2.63;;
80677;SDS011;70042;52.494;5.502;2023-09-18T06:30:47;3.00;;;2.40;;
80677;SDS011;70042;52.494;5.502;2023-09-18T06:33:13;4.15;;;2.60;;
80677;SDS011;70042;52.494;5.502;2023-09-18T06:35:39;3.60;;;2.42;;
80677;SDS011;70042;52.494;5.502;2023-09-18T06:40:31;3.63;;;2.83;;
80677;SDS011;70042;52.494;5.502;2023-09-18T06:43:00;3.55;;;2.80;;
80677;SDS011;70042;52.494;5.502;2023-09-18T06:45:26;3.85;;;2.70;;
80677;SDS011;70042;52.494;5.502;2023-09-18T06:47:52;3.80;;;2.53;;
80677;SDS011;70042;52.494;5.502;2023-09-18T06:50:18;4.45;;;3.05;;
80677;SDS011;70042;52.494;5.502;2023-09-18T06:55:09;3.58;;;2.20;;
80677;SDS011;70042;52.494;5.502;2023-09-18T07:00:00;3.00;;;2.70;;
80677;SDS011;70042;52.494;5.502;2023-09-18T07:04:52;4.38;;;2.50;;
80677;SDS011;70042;52.494;5.502;2023-09-18T07:07:17;2.75;;;2.22;;
80677;SDS011;70042;52.494;5.502;2023-09-18T07:09:50;2.45;;;2.15;;
80677;SDS011;70042;52.494;5.502;2023-09-18T07:12:16;3.33;;;2.40;;
80677;SDS011;70042;52.494;5.502;2023-09-18T07:14:43;4.40;;;2.67;;
80677;SDS011;70042;52.494;5.502;2023-09-18T07:17:09;4.65;;;2.97;;
80677;SDS011;70042;52.494;5.502;2023-09-18T07:22:00;3.25;;;2.28;;
80677;SDS011;70042;52.494;5.502;2023-09-18T07:26:51;4.70;;;2.50;;
80677;SDS011;70042;52.494;5.502;2023-09-18T07:29:16;3.72;;;2.53;;
80677;SDS011;70042;52.494;5.502;2023-09-18T07:31:43;3.90;;;2.50;;
80677;SDS011;70042;52.494;5.502;2023-09-18T07:34:09;3.13;;;2.22;;
80677;SDS011;70042;52.494;5.502;2023-09-18T07:36:35;3.67;;;2.70;;
80677;SDS011;70042;52.494;5.502;2023-09-18T07:41:26;4.07;;;2.73;;
80677;SDS011;70042;52.494;5.502;2023-09-18T07:46:16;3.23;;;2.20;;
80677;SDS011;70042;52.494;5.502;2023-09-18T07:48:42;4.03;;;2.30;;
80677;SDS011;70042;52.494;5.502;2023-09-18T07:51:11;3.10;;;2.33;;
80677;SDS011;70042;52.494;5.502;2023-09-18T07:53:37;2.65;;;2.05;;
80677;SDS011;70042;52.494;5.502;2023-09-18T07:56:03;3.35;;;2.30;;
80677;SDS011;70042;52.494;5.502;2023-09-18T07:58:30;5.68;;;2.70;;
80677;SDS011;70042;52.494;5.502;2023-09-18T08:00:56;2.30;;;2.10;;
80677;SDS011;70042;52.494;5.502;2023-09-18T08:03:27;3.25;;;2.33;;
80677;SDS011;70042;52.494;5.502;2023-09-18T08:05:53;3.33;;;2.53;;
80677;SDS011;70042;52.494;5.502;2023-09-18T08:08:19;3.38;;;2.22;;
80677;SDS011;70042;52.494;5.502;2023-09-18T08:10:46;3.08;;;2.38;;
80677;SDS011;70042;52.494;5.502;2023-09-18T08:13:12;3.38;;;2.30;;
80677;SDS011;70042;52.494;5.502;2023-09-18T08:18:03;2.75;;;2.25;;
80677;SDS011;70042;52.494;5.502;2023-09-18T08:20:29;3.42;;;2.55;;
80677;SDS011;70042;52.494;5.502;2023-09-18T08:25:19;3.27;;;2.23;;
80677;SDS011;70042;52.494;5.502;2023-09-18T08:27:45;3.20;;;2.10;;
80677;SDS011;70042;52.494;5.502;2023-09-18T08:30:11;3.92;;;2.22;;
80677;SDS011;70042;52.494;5.502;2023-09-18T08:32:37;3.65;;;2.30;;
80677;SDS011;70042;52.494;5.502;2023-09-18T08:35:04;3.65;;;2.53;;
80677;SDS011;70042;52.494;5.502;2023-09-18T08:37:30;3.05;;;2.33;;
80677;SDS011;70042;52.494;5.502;2023-09-18T08:39:55;4.03;;;2.58;;
80677;SDS011;70042;52.494;5.502;2023-09-18T08:44:51;3.65;;;2.60;;
80677;SDS011;70042;52.494;5.502;2023-09-18T08:47:17;3.80;;;2.13;;
80677;SDS011;70042;52.494;5.502;2023-09-18T08:49:44;2.85;;;2.15;;
80677;SDS011;70042;52.494;5.502;2023-09-18T08:52:13;3.35;;;2.67;;
80677;SDS011;70042;52.494;5.502;2023-09-18T08:54:40;4.22;;;2.53;;
80677;SDS011;70042;52.494;5.502;2023-09-18T08:57:07;3.38;;;2.10;;
80677;SDS011;70042;52.494;5.502;2023-09-18T08:59:33;2.85;;;2.40;;
80677;SDS011;70042;52.494;5.502;2023-09-18T09:02:01;3.30;;;2.72;;
80677;SDS011;70042;52.494;5.502;2023-09-18T09:06:53;3.33;;;2.20;;
80677;SDS011;70042;52.494;5.502;2023-09-18T09:09:18;3.22;;;2.45;;
80677;SDS011;70042;52.494;5.502;2023-09-18T09:14:13;2.50;;;2.10;;
80677;SDS011;70042;52.494;5.502;2023-09-18T09:16:53;2.92;;;2.13;;
80677;SDS011;70042;52.494;5.502;2023-09-18T09:19:27;2.40;;;2.15;;
80677;SDS011;70042;52.494;5.502;2023-09-18T09:21:55;3.45;;;2.33;;
80677;SDS011;70042;52.494;5.502;2023-09-18T09:24:39;4.53;;;2.55;;
80677;SDS011;70042;52.494;5.502;2023-09-18T09:27:07;2.85;;;2.50;;
80677;SDS011;70042;52.494;5.502;2023-09-18T09:29:33;3.20;;;2.63;;
80677;SDS011;70042;52.494;5.502;2023-09-18T09:32:15;3.63;;;2.67;;
80677;SDS011;70042;52.494;5.502;2023-09-18T09:34:58;4.03;;;2.35;;
80677;SDS011;70042;52.494;5.502;2023-09-18T09:37:31;2.47;;;1.90;;
80677;SDS011;70042;52.494;5.502;2023-09-18T09:39:56;2.80;;;1.92;;
80677;SDS011;70042;52.494;5.502;2023-09-18T09:42:24;4.22;;;2.95;;
80677;SDS011;70042;52.494;5.502;2023-09-18T09:45:07;3.30;;;2.20;;
80677;SDS011;70042;52.494;5.502;2023-09-18T09:47:38;3.47;;;2.75;;
80677;SDS011;70042;52.494;5.502;2023-09-18T09:50:07;3.72;;;2.95;;
80677;SDS011;70042;52.494;5.502;2023-09-18T09:52:35;2.85;;;2.35;;
80677;SDS011;70042;52.494;5.502;2023-09-18T09:55:04;3.08;;;2.50;;
80677;SDS011;70042;52.494;5.502;2023-09-18T09:57:47;2.88;;;2.45;;
80677;SDS011;70042;52.494;5.502;2023-09-18T10:00:13;5.30;;;2.58;;
80677;SDS011;70042;52.494;5.502;2023-09-18T10:02:56;3.13;;;2.30;;
80677;SDS011;70042;52.494;5.502;2023-09-18T10:05:35;3.47;;;2.17;;
80677;SDS011;70042;52.494;5.502;2023-09-18T10:08:03;2.60;;;1.90;;
80677;SDS011;70042;52.494;5.502;2023-09-18T10:10:38;4.60;;;2.70;;
80677;SDS011;70042;52.494;5.502;2023-09-18T10:13:20;3.45;;;2.67;;
80677;SDS011;70042;52.494;5.502;2023-09-18T10:15:50;3.28;;;2.22;;
80677;SDS011;70042;52.494;5.502;2023-09-18T10:18:17;3.35;;;2.20;;
80677;SDS011;70042;52.494;5.502;2023-09-18T10:21:03;2.75;;;2.42;;
80677;SDS011;70042;52.494;5.502;2023-09-18T10:23:46;3.38;;;2.50;;
80677;SDS011;70042;52.494;5.502;2023-09-18T10:26:25;2.53;;;2.10;;
80677;SDS011;70042;52.494;5.502;2023-09-18T10:28:56;2.65;;;2.00;;
80677;SDS011;70042;52.494;5.502;2023-09-18T10:31:28;3.25;;;2.03;;
80677;SDS011;70042;52.494;5.502;2023-09-18T10:33:55;2.63;;;2.25;;
80677;SDS011;70042;52.494;5.502;2023-09-18T10:36:22;4.32;;;2.63;;
80677;SDS011;70042;52.494;5.502;2023-09-18T10:38:50;4.22;;;2.20;;
80677;SDS011;70042;52.494;5.502;2023-09-18T10:41:19;3.22;;;2.17;;
80677;SDS011;70042;52.494;5.502;2023-09-18T10:43:45;4.10;;;2.53;;
80677;SDS011;70042;52.494;5.502;2023-09-18T10:46:13;4.05;;;2.53;;
80677;SDS011;70042;52.494;5.502;2023-09-18T10:48:42;3.78;;;2.20;;
80677;SDS011;70042;52.494;5.502;2023-09-18T10:51:09;3.97;;;2.60;;
80677;SDS011;70042;52.494;5.502;2023-09-18T10:53:35;2.90;;;2.38;;
80677;SDS011;70042;52.494;5.502;2023-09-18T10:56:02;3.53;;;2.30;;
80677;SDS011;70042;52.494;5.502;2023-09-18T10:58:31;2.92;;;2.42;;
80677;SDS011;70042;52.494;5.502;2023-09-18T11:01:00;3.47;;;3.15;;
80677;SDS011;70042;52.494;5.502;2023-09-18T11:03:27;3.53;;;2.50;;
80677;SDS011;70042;52.494;5.502;2023-09-18T11:06:03;3.00;;;2.28;;
80677;SDS011;70042;52.494;5.502;2023-09-18T11:08:34;2.97;;;2.22;;
80677;SDS011;70042;52.494;5.502;2023-09-18T11:13:34;3.53;;;2.20;;
80677;SDS011;70042;52.494;5.502;2023-09-18T11:16:02;2.92;;;2.47;;
80677;SDS011;70042;52.494;5.502;2023-09-18T11:18:38;4.22;;;2.65;;
80677;SDS011;70042;52.494;5.502;2023-09-18T11:21:07;3.00;;;2.40;;
80677;SDS011;70042;52.494;5.502;2023-09-18T11:23:34;3.38;;;2.40;;
80677;SDS011;70042;52.494;5.502;2023-09-18T11:26:08;2.80;;;2.35;;
80677;SDS011;70042;52.494;5.502;2023-09-18T11:28:34;3.38;;;2.50;;
80677;SDS011;70042;52.494;5.502;2023-09-18T11:35:56;3.47;;;2.10;;
80677;SDS011;70042;52.494;5.502;2023-09-18T11:38:23;4.07;;;2.40;;
80677;SDS011;70042;52.494;5.502;2023-09-18T11:45:56;3.42;;;2.22;;
80677;SDS011;70042;52.494;5.502;2023-09-18T11:48:23;3.10;;;2.03;;
80677;SDS011;70042;52.494;5.502;2023-09-18T11:50:52;4.22;;;2.35;;
80677;SDS011;70042;52.494;5.502;2023-09-18T11:53:19;2.83;;;2.50;;
80677;SDS011;70042;52.494;5.502;2023-09-18T11:55:46;2.65;;;2.30;;
80677;SDS011;70042;52.494;5.502;2023-09-18T11:58:12;2.88;;;2.20;;
80677;SDS011;70042;52.494;5.502;2023-09-18T12:00:39;3.25;;;2.45;;
80677;SDS011;70042;52.494;5.502;2023-09-18T12:03:15;2.65;;;2.45;;
80677;SDS011;70042;52.494;5.502;2023-09-18T12:05:52;3.15;;;2.13;;
80677;SDS011;70042;52.494;5.502;2023-09-18T12:08:18;4.20;;;2.58;;
80677;SDS011;70042;52.494;5.502;2023-09-18T12:10:43;3.13;;;2.20;;
80677;SDS011;70042;52.494;5.502;2023-09-18T12:13:09;2.95;;;1.95;;
80677;SDS011;70042;52.494;5.502;2023-09-18T12:15:36;3.60;;;2.47;;
80677;SDS011;70042;52.494;5.502;2023-09-18T12:18:08;3.22;;;2.17;;
80677;SDS011;70042;52.494;5.502;2023-09-18T12:20:37;3.17;;;2.30;;
80677;SDS011;70042;52.494;5.502;2023-09-18T12:25:28;2.63;;;2.42;;
80677;SDS011;70042;52.494;5.502;2023-09-18T12:30:20;3.28;;;2.13;;
80677;SDS011;70042;52.494;5.502;2023-09-18T12:32:48;4.40;;;2.35;;
80677;SDS011;70042;52.494;5.502;2023-09-18T12:35:15;2.90;;;2.10;;
80677;SDS011;70042;52.494;5.502;2023-09-18T12:37:43;2.95;;;2.03;;
80677;SDS011;70042;52.494;5.502;2023-09-18T12:42:48;2.50;;;2.25;;
80677;SDS011;70042;52.494;5.502;2023-09-18T12:45:15;2.78;;;2.15;;
80677;SDS011;70042;52.494;5.502;2023-09-18T12:47:41;3.28;;;2.10;;
80677;SDS011;70042;52.494;5.502;2023-09-18T12:50:08;4.40;;;2.53;;
80677;SDS011;70042;52.494;5.502;2023-09-18T12:52:37;4.15;;;2.55;;
80677;SDS011;70042;52.494;5.502;2023-09-18T12:55:02;3.15;;;2.20;;
80677;SDS011;70042;52.494;5.502;2023-09-18T12:57:31;2.60;;;2.40;;
80677;SDS011;70042;52.494;5.502;2023-09-18T12:59:57;2.72;;;2.22;;
80677;SDS011;70042;52.494;5.502;2023-09-18T13:02:23;2.22;;;2.03;;
80677;SDS011;70042;52.494;5.502;2023-09-18T13:07:18;2.88;;;2.30;;
80677;SDS011;70042;52.494;5.502;2023-09-18T13:09:57;3.00;;;2.20;;
80677;SDS011;70042;52.494;5.502;2023-09-18T13:12:38;2.85;;;2.15;;
80677;SDS011;70042;52.494;5.502;2023-09-18T13:15:05;4.68;;;2.40;;
80677;SDS011;70042;52.494;5.502;2023-09-18T13:17:37;4.00;;;2.50;;
80677;SDS011;70042;52.494;5.502;2023-09-18T13:20:12;2.10;;;1.88;;
80677;SDS011;70042;52.494;5.502;2023-09-18T13:22:40;3.63;;;2.03;;
80677;SDS011;70042;52.494;5.502;2023-09-18T13:25:07;2.75;;;2.08;;
80677;SDS011;70042;52.494;5.502;2023-09-18T13:27:34;2.47;;;2.13;;
80677;SDS011;70042;52.494;5.502;2023-09-18T13:32:32;4.25;;;2.20;;
80677;SDS011;70042;52.494;5.502;2023-09-18T13:34:59;3.10;;;2.45;;
80677;SDS011;70042;52.494;5.502;2023-09-18T13:37:25;2.92;;;2.30;;
80677;SDS011;70042;52.494;5.502;2023-09-18T13:39:52;3.08;;;2.28;;
80677;SDS011;70042;52.494;5.502;2023-09-18T13:44:42;3.03;;;2.20;;
80677;SDS011;70042;52.494;5.502;2023-09-18T13:49:33;2.57;;;2.20;;
80677;SDS011;70042;52.494;5.502;2023-09-18T13:54:25;2.53;;;2.28;;
80677;SDS011;70042;52.494;5.502;2023-09-18T13:59:16;2.40;;;2.00;;
80677;SDS011;70042;52.494;5.502;2023-09-18T14:04:07;2.40;;;1.83;;
80677;SDS011;70042;52.494;5.502;2023-09-18T14:08:58;2.63;;;2.20;;
80677;SDS011;70042;52.494;5.502;2023-09-18T14:13:48;2.70;;;2.15;;
80677;SDS011;70042;52.494;5.502;2023-09-18T14:18:39;2.20;;;1.90;;
80677;SDS011;70042;52.494;5.502;2023-09-18T14:23:31;2.33;;;2.03;;
80677;SDS011;70042;52.494;5.502;2023-09-18T14:25:59;2.28;;;2.08;;
80677;SDS011;70042;52.494;5.502;2023-09-18T14:28:25;2.90;;;1.95;;
80677;SDS011;70042;52.494;5.502;2023-09-18T14:30:51;2.55;;;1.95;;
80677;SDS011;70042;52.494;5.502;2023-09-18T14:35:42;2.47;;;2.03;;
80677;SDS011;70042;52.494;5.502;2023-09-18T14:38:07;2.80;;;1.90;;
80677;SDS011;70042;52.494;5.502;2023-09-18T14:42:58;3.03;;;2.20;;
80677;SDS011;70042;52.494;5.502;2023-09-18T14:45:24;2.83;;;2.30;;
80677;SDS011;70042;52.494;5.502;2023-09-18T14:50:15;2.92;;;2.28;;
80677;SDS011;70042;52.494;5.502;2023-09-18T14:55:06;4.07;;;2.13;;
80677;SDS011;70042;52.494;5.502;2023-09-18T14:59:57;3.07;;;2.30;;
80677;SDS011;70042;52.494;5.502;2023-09-18T15:04:52;6.78;;;3.72;;
80677;SDS011;70042;52.494;5.502;2023-09-18T15:07:18;65.53;;;26.02;;
80677;SDS011;70042;52.494;5.502;2023-09-18T15:09:46;77.28;;;49.03;;
80677;SDS011;70042;52.494;5.502;2023-09-18T15:12:12;52.47;;;37.00;;
80677;SDS011;70042;52.494;5.502;2023-09-18T15:17:04;24.90;;;15.63;;
80677;SDS011;70042;52.494;5.502;2023-09-18T15:19:29;26.02;;;15.48;;
80677;SDS011;70042;52.494;5.502;2023-09-18T15:24:22;21.77;;;13.77;;
80677;SDS011;70042;52.494;5.502;2023-09-18T15:26:48;22.40;;;13.68;;
80677;SDS011;70042;52.494;5.502;2023-09-18T15:31:38;16.90;;;11.33;;
80677;SDS011;70042;52.494;5.502;2023-09-18T15:34:06;17.17;;;10.82;;
80677;SDS011;70042;52.494;5.502;2023-09-18T15:36:31;16.80;;;10.27;;
80677;SDS011;70042;52.494;5.502;2023-09-18T15:41:24;13.00;;;8.25;;
80677;SDS011;70042;52.494;5.502;2023-09-18T15:43:49;14.27;;;9.38;;
80677;SDS011;70042;52.494;5.502;2023-09-18T15:48:42;11.60;;;6.57;;
80677;SDS011;70042;52.494;5.502;2023-09-18T15:53:35;12.32;;;6.85;;
80677;SDS011;70042;52.494;5.502;2023-09-18T15:56:01;9.80;;;6.28;;
80677;SDS011;70042;52.494;5.502;2023-09-18T16:00:52;10.67;;;5.70;;
80677;SDS011;70042;52.494;5.502;2023-09-18T16:05:43;7.03;;;4.72;;
80677;SDS011;70042;52.494;5.502;2023-09-18T16:10:33;9.73;;;4.47;;
80677;SDS011;70042;52.494;5.502;2023-09-18T16:15:24;6.50;;;3.83;;
80677;SDS011;70042;52.494;5.502;2023-09-18T16:17:52;7.47;;;4.57;;
80677;SDS011;70042;52.494;5.502;2023-09-18T16:20:19;8.00;;;4.30;;
80677;SDS011;70042;52.494;5.502;2023-09-18T16:22:45;7.88;;;4.43;;
80677;SDS011;70042;52.494;5.502;2023-09-18T16:25:14;6.93;;;3.83;;
80677;SDS011;70042;52.494;5.502;2023-09-18T16:27:40;6.88;;;3.72;;
80677;SDS011;70042;52.494;5.502;2023-09-18T16:30:07;5.80;;;3.17;;
80677;SDS011;70042;52.494;5.502;2023-09-18T16:32:35;7.47;;;3.38;;
80677;SDS011;70042;52.494;5.502;2023-09-18T16:35:03;5.85;;;3.28;;
80677;SDS011;70042;52.494;5.502;2023-09-18T16:37:30;4.55;;;3.13;;
80677;SDS011;70042;52.494;5.502;2023-09-18T16:39:56;4.40;;;2.95;;
80677;SDS011;70042;52.494;5.502;2023-09-18T16:44:47;4.97;;;3.15;;
80677;SDS011;70042;52.494;5.502;2023-09-18T16:49:38;4.65;;;2.53;;
80677;SDS011;70042;52.494;5.502;2023-09-18T16:54:29;3.67;;;2.30;;
80677;SDS011;70042;52.494;5.502;2023-09-18T16:56:56;6.13;;;2.75;;
80677;SDS011;70042;52.494;5.502;2023-09-18T17:01:52;3.88;;;2.42;;
80677;SDS011;70042;52.494;5.502;2023-09-18T17:04:17;5.07;;;2.60;;
80677;SDS011;70042;52.494;5.502;2023-09-18T17:06:43;5.28;;;2.58;;
80677;SDS011;70042;52.494;5.502;2023-09-18T17:09:08;3.58;;;2.42;;
80677;SDS011;70042;52.494;5.502;2023-09-18T17:11:36;4.72;;;2.72;;
80677;SDS011;70042;52.494;5.502;2023-09-18T17:14:02;5.40;;;2.83;;
80677;SDS011;70042;52.494;5.502;2023-09-18T17:18:52;4.43;;;2.50;;
80677;SDS011;70042;52.494;5.502;2023-09-18T17:21:24;2.90;;;2.15;;
80677;SDS011;70042;52.494;5.502;2023-09-18T17:23:50;4.50;;;2.72;;
80677;SDS011;70042;52.494;5.502;2023-09-18T17:26:16;3.88;;;2.50;;
80677;SDS011;70042;52.494;5.502;2023-09-18T17:28:42;3.40;;;2.00;;
80677;SDS011;70042;52.494;5.502;2023-09-18T17:33:35;3.42;;;2.33;;
80677;SDS011;70042;52.494;5.502;2023-09-18T17:36:00;3.10;;;1.90;;
80677;SDS011;70042;52.494;5.502;2023-09-18T17:38:26;2.20;;;1.60;;
80677;SDS011;70042;52.494;5.502;2023-09-18T17:40:52;6.05;;;2.55;;
80677;SDS011;70042;52.494;5.502;2023-09-18T17:45:44;3.00;;;2.10;;
80677;SDS011;70042;52.494;5.502;2023-09-18T17:48:09;2.72;;;2.20;;
80677;SDS011;70042;52.494;5.502;2023-09-18T17:50:34;2.67;;;1.67;;
80677;SDS011;70042;52.494;5.502;2023-09-18T17:55:26;3.30;;;2.08;;
80677;SDS011;70042;52.494;5.502;2023-09-18T17:57:52;2.45;;;1.63;;
80677;SDS011;70042;52.494;5.502;2023-09-18T18:00:17;2.80;;;1.88;;
80677;SDS011;70042;52.494;5.502;2023-09-18T18:02:43;2.55;;;1.85;;
80677;SDS011;70042;52.494;5.502;2023-09-18T18:05:09;4.57;;;1.88;;
80677;SDS011;70042;52.494;5.502;2023-09-18T18:07:35;2.67;;;1.70;;